Central Virginia Flyers


Central Virginia Flyers is a 10 member flying club based in Richmond, VA at Hanover County Airport (KOFP). We own N787AT, a 1977 Cessna 172 with 180hp conversion. If you are interested in membership, please contact Brenton at [email protected]


Aviation Digital Data Service (ADDS)

Output produced by METARs form (1301 UTC 30 July 2016)
found at http://aviationweather.gov/adds/metars/
 
KOFP 301254Z AUTO 16003KT 8SM OVC095 27/23 A3001 RMK AO2 SLP158 T02670228
KRIC 301254Z 17005KT 8SM FEW090 BKN220 26/23 A2999 RMK AO2 SLP160 T02560233
KRIC 301136Z 3012/3112 14004KT P6SM SCT050 SCT100 
     FM301600 15007KT P6SM BKN050 
     FM310000 15003KT P6SM SCT050 BKN120